Marshfield, WI

12:18 AM CST on January 20, 2017 (GMT -0600)
2nd St | | Change Station
Active Advisory: Freezing Rain Advisory

Elev 1221 ft 44.64 °N, 90.10 °W | Updated 3 minutes ago

Light Rain
Light Rain Mist
32.5 °F
Feels Like 32 °F
N
1.0
Wind Variable Wind from SE
Gusts 1.0 mph

Today
High -- | Low -- °F
--% Chance of Precip.
Yesterday
High -- | Low -- °F
Precip. -- in
Pressure 29.78 in
Visibility 2.5 miles
Clouds Scattered Clouds 400 ft
Overcast 6000 ft
Windchill 32 °F
Dew Point 28 °F
Humidity 82%
Rainfall 0.00 in
Snow Depth Not available.
7:30 AM 4:53 PM
Waning Gibbous, 47% visible
METAR KMFI 200554Z AUTO 09006KT 2 1/2SM -RA BR SCT004 OVC060 01/M01 A2973 RMK AO2 SLP082 P0002 60002 I6001 T00061006 10006 21006 400111028 58008
Pressure 29.78 in
Visibility 2.5 miles
Clouds Scattered Clouds 400 ft
Overcast 6000 ft
Windchill 32 °F
Dew Point 28 °F
Humidity 82%
Rainfall 0.00 in
Snow Depth Not available.
7:30 AM 4:53 PM
Waning Gibbous, 47% visible
METAR KMFI 200554Z AUTO 09006KT 2 1/2SM -RA BR SCT004 OVC060 01/M01 A2973 RMK AO2 SLP082 P0002 60002 I6001 T00061006 10006 21006 400111028 58008

Get Your Daily Forecast Email!

Thanks for signing up!

Be on the lookout for a verification email in your inbox.

You'll start receiving the daily forecast at 8 AM.

×

10-Day Weather Forecast

Almanac

Astronomy

Jan. 20, 2017 Rise Set
Actual Time
Civil Twilight
Nautical Twilight
Astronomical Twilight
Moon
Length of Visible Light
Length of Day
Tomorrow will be .
, % of the Moon is Illuminated

Today's Extremes

State Highs State Lows

Community

WunderPhotos

Upload Photos

1,962,540 photos uploaded!

WunderBlog® & News

Nearby

Air Quality

  Air Quality AQ Index Pollutant
Not available.

Snow Depth

Station Depth Elevation

Earthquake Activity

City Distance Mag. Time & Date
Minimum magnitude displayed is 2.5.

Coastal Water Temperatures

Place Temperature

Stations

Nearby Weather Stations

Station Location Temp. Windchill Dew Point Humidity Wind Precip. Elev Updated Type
                   

Watches & Warnings

Freezing Rain Advisory
Issued: 10:36 PM CST Jan. 19, 2017 – National Weather Service

... Freezing Rain Advisory in effect until 10 am CST Friday...

* freezing rain should arrive by midnight and diminish around 9
am Friday.

* Total ice accumulations of up to 2/10 of an inch are expected
in some locations.

* The ice will result in difficult travel conditions... including
during the morning commute on Friday.

Precautionary/preparedness actions...

A Freezing Rain Advisory means that periods of freezing rain or
freezing drizzle will cause travel difficulties. Be prepared for
slippery roads. Slow down and use extra caution while driving.
The latest Wisconsin Road conditions can be obtained by calling
511.